createdAt,value
2018-04-19T07:45:09.015Z,16.38
2018-04-19T07:45:21.653Z,16.42
2018-04-19T07:45:34.244Z,16.31
2018-04-19T07:45:46.953Z,16.38
2018-04-19T07:45:59.560Z,16.38
2018-04-19T07:46:12.204Z,16.34
2018-04-19T07:46:24.803Z,16.35
2018-04-19T07:46:37.428Z,16.35
2018-04-19T07:46:50.050Z,16.39
2018-04-19T07:47:02.664Z,16.39
2018-04-19T07:47:15.336Z,16.48
2018-04-19T07:47:27.930Z,16.46
2018-04-19T07:47:40.538Z,16.42
2018-04-19T07:47:53.124Z,16.50
2018-04-19T07:48:05.725Z,16.46
2018-04-19T07:48:18.313Z,16.50
2018-04-19T07:48:30.910Z,16.48
2018-04-19T07:48:43.499Z,16.42
2018-04-19T07:48:56.116Z,16.43
2018-04-19T07:49:08.712Z,16.41
2018-04-19T07:49:21.329Z,16.52
2018-04-19T07:49:33.953Z,16.60
2018-04-19T07:49:46.571Z,16.60
2018-04-19T07:49:59.181Z,16.60
2018-04-19T07:50:11.798Z,16.58
2018-04-19T07:50:24.430Z,16.63
2018-04-19T07:50:37.006Z,16.64
2018-04-19T07:50:49.584Z,16.61
2018-04-19T07:51:02.604Z,16.67
2018-04-19T07:51:15.177Z,16.67
2018-04-19T07:51:27.838Z,16.71
2018-04-19T07:51:40.365Z,16.75
2018-04-19T07:51:52.951Z,16.76
2018-04-19T07:52:05.583Z,16.78
2018-04-19T07:52:18.206Z,16.81
2018-04-19T07:52:30.875Z,16.79
2018-04-19T07:52:43.507Z,16.83
2018-04-19T07:52:56.101Z,16.82
2018-04-19T07:53:08.696Z,16.89
2018-04-19T07:53:21.298Z,16.91
2018-04-19T07:53:33.914Z,17.00
2018-04-19T07:53:46.507Z,16.97
2018-04-19T07:53:59.101Z,16.89
2018-04-19T07:54:11.716Z,16.98
2018-04-19T07:54:24.308Z,16.96
2018-04-19T07:54:36.903Z,17.01
2018-04-19T07:54:49.565Z,16.98
2018-04-19T07:55:02.189Z,17.00
2018-04-19T07:55:14.827Z,17.06
2018-04-19T07:55:27.419Z,17.03
2018-04-19T07:55:40.049Z,17.07
2018-04-19T07:55:52.632Z,17.14
2018-04-19T07:56:05.223Z,17.14
2018-04-19T07:56:17.821Z,17.21
2018-04-19T07:56:30.498Z,17.25
2018-04-19T07:56:43.117Z,17.25
2018-04-19T07:56:55.761Z,17.30
2018-04-19T07:57:08.450Z,17.25
2018-04-19T07:57:21.130Z,17.30
2018-04-19T07:57:33.791Z,17.43
2018-04-19T07:57:46.438Z,17.38
2018-04-19T07:57:59.134Z,17.37
2018-04-19T07:58:11.685Z,17.46
2018-04-19T07:58:24.277Z,17.46
2018-04-19T07:58:36.872Z,17.55
2018-04-19T07:58:49.514Z,17.59
2018-04-19T07:59:02.139Z,17.58
2018-04-19T07:59:14.759Z,17.64
2018-04-19T07:59:27.394Z,17.58
2018-04-19T07:59:40.012Z,17.68
2018-04-19T07:59:52.608Z,17.68
2018-04-19T08:00:05.199Z,17.64
2018-04-19T08:00:17.799Z,17.75
2018-04-19T08:00:30.423Z,17.63
2018-04-19T08:00:43.031Z,17.79
2018-04-19T08:00:55.626Z,17.82
2018-04-19T08:01:08.239Z,17.82
2018-04-19T08:01:20.835Z,17.79
2018-04-19T08:01:33.504Z,17.95
2018-04-19T08:01:46.121Z,17.96
2018-04-19T08:01:58.737Z,17.95
2018-04-19T08:02:11.354Z,18.00
2018-04-19T08:02:23.951Z,18.08
2018-04-19T08:02:36.554Z,18.02
2018-04-19T08:02:49.166Z,18.05
2018-04-19T08:03:01.763Z,18.03
2018-04-19T08:03:14.383Z,18.20
2018-04-19T08:03:26.982Z,18.18
2018-04-19T08:03:39.593Z,18.23
2018-04-19T08:03:52.191Z,18.17
2018-04-19T08:04:04.782Z,18.23
2018-04-19T08:04:17.398Z,18.33
2018-04-19T08:04:30.014Z,18.29
2018-04-19T08:04:42.606Z,18.32
2018-04-19T08:04:55.248Z,18.29
2018-04-19T08:05:07.827Z,18.44
2018-04-19T08:05:20.463Z,18.45
2018-04-19T08:05:33.016Z,18.42
2018-04-19T08:05:45.635Z,18.44
2018-04-19T08:05:58.243Z,18.50
2018-04-19T08:06:10.829Z,18.47
2018-04-19T08:06:23.427Z,18.55
2018-04-19T08:06:36.049Z,18.54
2018-04-19T08:06:48.662Z,18.62
2018-04-19T08:07:01.307Z,18.60
2018-04-19T08:07:13.904Z,18.63
2018-04-19T08:07:26.496Z,18.58
2018-04-19T08:07:39.092Z,18.67
2018-04-19T08:07:51.681Z,18.66
2018-04-19T08:08:04.288Z,18.66
2018-04-19T08:08:16.921Z,18.73
2018-04-19T08:08:29.556Z,18.67
2018-04-19T08:08:42.147Z,18.70
2018-04-19T08:08:54.768Z,18.70
2018-04-19T08:09:07.436Z,18.75
2018-04-19T08:09:20.061Z,18.81
2018-04-19T08:09:32.655Z,18.82
2018-04-19T08:09:45.250Z,18.85
2018-04-19T08:09:57.868Z,18.87
2018-04-19T08:10:10.488Z,18.91
2018-04-19T08:10:23.091Z,18.90
2018-04-19T08:10:35.683Z,18.90
2018-04-19T08:10:48.422Z,18.98
2018-04-19T08:11:01.133Z,18.98
2018-04-19T08:11:13.832Z,19.04
2018-04-19T08:11:26.541Z,18.98
2018-04-19T08:11:39.222Z,19.08
2018-04-19T08:11:51.789Z,19.13
2018-04-19T08:12:04.516Z,19.02
2018-04-19T08:12:17.566Z,19.00
2018-04-19T08:12:30.613Z,19.06
2018-04-19T08:12:43.206Z,19.16
2018-04-19T08:12:56.311Z,19.08
2018-04-19T08:13:08.899Z,19.18
2018-04-19T08:13:21.781Z,19.16
2018-04-19T08:13:34.847Z,19.18
2018-04-19T08:13:47.496Z,19.13
2018-04-19T08:14:00.085Z,19.25
2018-04-19T08:14:12.719Z,19.13
2018-04-19T08:14:25.403Z,19.25
2018-04-19T08:14:38.037Z,19.25
2018-04-19T08:14:50.699Z,19.25
2018-04-19T08:15:03.344Z,19.32
2018-04-19T08:15:15.967Z,19.28
2018-04-19T08:15:28.681Z,19.32
2018-04-19T08:15:41.376Z,19.33
2018-04-19T08:15:54.608Z,19.39
2018-04-19T08:16:07.248Z,19.37
2018-04-19T08:16:20.418Z,19.44
2018-04-19T08:16:33.413Z,19.41
2018-04-19T08:16:46.028Z,19.40
2018-04-19T08:16:58.983Z,19.39
2018-04-19T08:17:11.749Z,19.51
2018-04-19T08:17:24.669Z,19.50
2018-04-19T08:17:37.286Z,19.50
2018-04-19T08:17:50.004Z,19.55
2018-04-19T08:18:02.626Z,19.56
2018-04-19T08:18:15.597Z,19.59
2018-04-19T08:18:28.251Z,19.59
2018-04-19T08:18:41.273Z,19.62
2018-04-19T08:18:54.393Z,19.59
2018-04-19T08:19:06.893Z,19.55
2018-04-19T08:19:19.530Z,19.71
2018-04-19T08:19:32.179Z,19.68
2018-04-19T08:19:44.790Z,19.74
2018-04-19T08:19:57.389Z,19.80
2018-04-19T08:20:10.014Z,19.78
2018-04-19T08:20:22.624Z,19.76
2018-04-19T08:20:35.215Z,19.78
2018-04-19T08:20:47.811Z,19.84
2018-04-19T08:21:00.405Z,19.94
2018-04-19T08:21:13.002Z,19.86
2018-04-19T08:21:25.590Z,19.94
2018-04-19T08:21:38.190Z,19.88
2018-04-19T08:21:50.785Z,19.96
2018-04-19T08:22:03.379Z,19.87
2018-04-19T08:22:15.972Z,19.92
2018-04-19T08:22:28.592Z,19.98
2018-04-19T08:22:41.185Z,19.96
2018-04-19T08:22:53.785Z,19.94
2018-04-19T08:23:06.405Z,20.02
2018-04-19T08:23:19.027Z,19.96
2018-04-19T08:23:31.615Z,20.02
2018-04-19T08:23:44.210Z,20.01
2018-04-19T08:23:56.805Z,20.02
2018-04-19T08:24:09.405Z,20.05
2018-04-19T08:24:22.000Z,20.08
2018-04-19T08:24:34.616Z,20.06
2018-04-19T08:24:47.186Z,20.06
2018-04-19T08:24:59.799Z,20.08
2018-04-19T08:25:12.392Z,20.10
2018-04-19T08:25:24.985Z,20.08
2018-04-19T08:25:37.578Z,20.10
2018-04-19T08:25:50.169Z,20.13
2018-04-19T08:26:02.774Z,20.08
2018-04-19T08:26:15.868Z,20.05
2018-04-19T08:26:29.039Z,20.17
2018-04-19T08:26:42.106Z,20.16
2018-04-19T08:26:54.909Z,20.16
2018-04-19T08:27:07.568Z,20.20
2018-04-19T08:27:20.870Z,20.26
2018-04-19T08:27:33.477Z,20.14
2018-04-19T08:27:46.063Z,20.21
2018-04-19T08:27:58.654Z,20.20
2018-04-19T08:28:11.248Z,20.23
2018-04-19T08:28:23.873Z,20.32
2018-04-19T08:28:36.500Z,20.28
2018-04-19T08:28:49.095Z,20.31
2018-04-19T08:29:01.698Z,20.32
2018-04-19T08:29:14.308Z,20.36
2018-04-19T08:29:26.912Z,20.36
2018-04-19T08:29:39.502Z,20.35
2018-04-19T08:29:52.098Z,20.33
2018-04-19T08:30:04.702Z,20.28
2018-04-19T08:30:17.309Z,20.32
2018-04-19T08:30:29.908Z,20.32
2018-04-19T08:30:42.521Z,20.36
2018-04-19T08:30:55.126Z,20.36
2018-04-19T08:31:07.760Z,20.39
2018-04-19T08:31:20.367Z,20.39
2018-04-19T08:31:32.933Z,20.39
2018-04-19T08:31:45.557Z,20.39
2018-04-19T08:31:58.139Z,20.55
2018-04-19T08:32:10.738Z,20.43
2018-04-19T08:32:23.349Z,20.55
2018-04-19T08:32:35.942Z,20.51
2018-04-19T08:32:49.264Z,20.55
2018-04-19T08:33:02.307Z,20.52
2018-04-19T08:33:15.253Z,20.57
2018-04-19T08:33:28.068Z,20.59
2018-04-19T08:33:40.641Z,20.59
2018-04-19T08:33:53.595Z,20.54
2018-04-19T08:34:06.271Z,20.55
2018-04-19T08:34:19.408Z,20.58
2018-04-19T08:34:32.595Z,20.55
2018-04-19T08:34:45.601Z,20.52
2018-04-19T08:34:58.191Z,20.66
2018-04-19T08:35:10.827Z,20.57
2018-04-19T08:35:23.593Z,20.54
2018-04-19T08:35:36.568Z,20.52
2018-04-19T08:35:49.185Z,20.54
2018-04-19T08:36:01.847Z,20.57
2018-04-19T08:36:14.719Z,20.47
2018-04-19T08:36:27.869Z,20.54
2018-04-19T08:36:40.461Z,20.54
2018-04-19T08:36:53.086Z,20.57
2018-04-19T08:37:05.896Z,20.57
2018-04-19T08:37:18.492Z,20.57
2018-04-19T08:37:31.109Z,20.54
2018-04-19T08:37:43.708Z,20.52
2018-04-19T08:37:56.306Z,20.52
2018-04-19T08:38:08.989Z,20.52
2018-04-19T08:38:21.679Z,20.54
2018-04-19T08:38:34.302Z,20.55
2018-04-19T08:38:46.945Z,20.51
2018-04-19T08:38:59.585Z,20.61
2018-04-19T08:39:12.196Z,20.57
2018-04-19T08:39:24.838Z,20.61
2018-04-19T08:39:37.470Z,20.57
2018-04-19T08:39:50.081Z,20.52
2018-04-19T08:40:02.746Z,20.62
2018-04-19T08:40:15.338Z,20.55
2018-04-19T08:40:27.969Z,20.70
2018-04-19T08:40:40.589Z,20.73
2018-04-19T08:40:53.188Z,20.67
2018-04-19T08:41:05.821Z,20.76
2018-04-19T08:41:18.432Z,20.76
2018-04-19T08:41:31.061Z,20.74
2018-04-19T08:41:43.680Z,20.72
2018-04-19T08:41:56.277Z,20.72
2018-04-19T08:42:08.863Z,20.72
2018-04-19T08:42:21.461Z,20.73
2018-04-19T08:42:34.126Z,20.72
2018-04-19T08:42:46.758Z,20.72
2018-04-19T08:42:59.384Z,20.76
2018-04-19T08:43:11.971Z,20.69
2018-04-19T08:43:24.630Z,20.67
2018-04-19T08:43:37.298Z,20.76
2018-04-19T08:43:49.915Z,20.69
2018-04-19T08:44:02.544Z,20.66
2018-04-19T08:44:15.120Z,20.73
2018-04-19T08:44:27.765Z,20.84
2018-04-19T08:44:40.386Z,20.85
2018-04-19T08:44:52.985Z,20.82
2018-04-19T08:45:05.604Z,20.77
2018-04-19T08:45:18.219Z,20.79
2018-04-19T08:45:30.871Z,20.87
2018-04-19T08:45:43.573Z,20.79
2018-04-19T08:45:56.179Z,20.80
2018-04-19T08:46:08.810Z,20.84
2018-04-19T08:46:21.423Z,20.77
2018-04-19T08:46:34.016Z,20.87
2018-04-19T08:46:46.614Z,20.85
2018-04-19T08:46:59.223Z,20.92
2018-04-19T08:47:11.847Z,20.84
2018-04-19T08:47:24.491Z,20.87
2018-04-19T08:47:37.081Z,20.87
2018-04-19T08:47:49.701Z,20.89
2018-04-19T08:48:02.322Z,20.91
2018-04-19T08:48:14.947Z,20.87
2018-04-19T08:48:27.584Z,20.95
2018-04-19T08:48:40.205Z,20.97
2018-04-19T08:48:52.792Z,20.95
2018-04-19T08:49:05.438Z,20.91
2018-04-19T08:50:13.032Z,21.06
2018-04-19T08:50:25.623Z,21.01
2018-04-19T08:50:38.220Z,21.03
2018-04-19T08:50:50.817Z,21.12
2018-04-19T08:51:03.446Z,21.12
2018-04-19T08:51:16.052Z,21.14
2018-04-19T08:51:28.648Z,21.10
2018-04-19T08:51:41.248Z,21.17
2018-04-19T08:51:53.893Z,21.10
2018-04-19T08:52:06.507Z,21.07
2018-04-19T08:52:19.096Z,21.10
2018-04-19T08:52:31.721Z,21.17
2018-04-19T08:52:44.345Z,21.16
2018-04-19T08:52:56.934Z,21.17
2018-04-19T08:53:09.554Z,21.19
2018-04-19T08:53:22.167Z,21.14
2018-04-19T08:53:34.761Z,21.25
2018-04-19T08:53:47.357Z,21.22
2018-04-19T08:53:59.989Z,21.17
2018-04-19T08:54:12.578Z,21.32
2018-04-19T08:54:25.196Z,21.29
2018-04-19T08:54:37.814Z,21.29
2018-04-19T08:54:50.487Z,21.27
2018-04-19T08:55:03.077Z,21.27
2018-04-19T08:55:15.696Z,21.25
2018-04-19T08:55:28.290Z,21.28
2018-04-19T08:55:40.882Z,21.31
2018-04-19T08:55:53.483Z,21.27
2018-04-19T08:56:06.072Z,21.35
2018-04-19T08:56:18.695Z,21.31
2018-04-19T08:56:31.307Z,21.38
2018-04-19T08:56:43.901Z,21.38
2018-04-19T08:56:56.527Z,21.40
2018-04-19T08:57:09.157Z,21.38
2018-04-19T08:57:21.784Z,21.42
2018-04-19T08:57:34.428Z,21.50
2018-04-19T08:57:47.039Z,21.44
2018-04-19T08:57:59.628Z,21.47
2018-04-19T08:58:12.283Z,21.50
2018-04-19T08:58:24.888Z,21.54
2018-04-19T08:58:37.511Z,21.52
2018-04-19T08:58:50.169Z,21.49
2018-04-19T08:59:02.909Z,21.54
2018-04-19T08:59:15.577Z,21.54
2018-04-19T08:59:28.161Z,21.47
2018-04-19T08:59:40.792Z,21.56
2018-04-19T08:59:53.438Z,21.56
2018-04-19T09:00:06.061Z,21.53
2018-04-19T09:00:18.652Z,21.54
2018-04-19T09:00:31.249Z,21.54
2018-04-19T09:00:43.871Z,21.64
2018-04-19T09:00:56.487Z,21.59
2018-04-19T09:01:09.109Z,21.58
2018-04-19T09:01:21.758Z,21.59
2018-04-19T09:01:34.651Z,21.61
2018-04-19T09:01:47.210Z,21.62
2018-04-19T09:01:59.804Z,21.61
2018-04-19T09:02:12.442Z,21.58
2018-04-19T09:02:25.055Z,21.64
2018-04-19T09:02:37.657Z,21.61
2018-04-19T09:02:50.473Z,21.61
2018-04-19T09:03:03.079Z,21.65
2018-04-19T09:03:15.668Z,21.67
2018-04-19T09:03:28.330Z,21.59
2018-04-19T09:03:40.954Z,21.69
2018-04-19T09:03:53.550Z,21.64
2018-04-19T09:04:06.142Z,21.67
2018-04-19T09:04:18.736Z,21.64
2018-04-19T09:04:31.337Z,21.68
2018-04-19T09:04:43.931Z,21.65
2018-04-19T09:04:56.554Z,21.71
2018-04-19T09:05:09.143Z,21.74
2018-04-19T09:05:21.737Z,21.69
2018-04-19T09:05:34.332Z,21.77
2018-04-19T09:05:46.924Z,21.64
2018-04-19T09:05:59.512Z,21.62
2018-04-19T09:06:12.115Z,21.69
2018-04-19T09:06:24.735Z,21.65
2018-04-19T09:06:37.327Z,21.62
2018-04-19T09:06:49.950Z,21.62
2018-04-19T09:07:02.573Z,21.65
2018-04-19T09:07:15.168Z,21.62
2018-04-19T09:07:27.766Z,21.72
2018-04-19T09:07:40.358Z,21.65
2018-04-19T09:07:52.972Z,21.62
2018-04-19T09:08:05.545Z,21.68
2018-04-19T09:08:18.150Z,21.71
2018-04-19T09:08:30.768Z,21.69
2018-04-19T09:08:43.377Z,21.69
2018-04-19T09:08:55.977Z,21.67
2018-04-19T09:09:08.568Z,21.64
2018-04-19T09:09:21.157Z,21.61
2018-04-19T09:09:33.751Z,21.61
2018-04-19T09:09:46.383Z,21.61
2018-04-19T09:09:59.042Z,21.59
2018-04-19T09:10:11.649Z,21.61
2018-04-19T09:10:24.262Z,21.50
2018-04-19T09:10:36.864Z,21.54
2018-04-19T09:10:49.533Z,21.54
2018-04-19T09:11:02.154Z,21.54
2018-04-19T09:11:14.762Z,21.52
2018-04-19T09:11:27.379Z,21.53
2018-04-19T09:11:39.999Z,21.58
2018-04-19T09:11:52.595Z,21.49
2018-04-19T09:12:05.209Z,21.49
2018-04-19T09:12:17.805Z,21.56
2018-04-19T09:12:30.398Z,21.52
2018-04-19T09:12:43.033Z,21.52
2018-04-19T09:12:55.651Z,21.49
2018-04-19T09:13:08.249Z,21.49
2018-04-19T09:13:20.869Z,21.50
2018-04-19T09:13:33.463Z,21.44
2018-04-19T09:13:46.059Z,21.42
2018-04-19T09:13:58.677Z,21.42
2018-04-19T09:14:11.296Z,21.40
2018-04-19T09:14:23.890Z,21.43
2018-04-19T09:14:36.469Z,21.42
2018-04-19T09:14:49.115Z,21.40
2018-04-19T09:15:01.734Z,21.43
2018-04-19T09:15:14.352Z,21.40
2018-04-19T09:15:26.942Z,21.38
2018-04-19T09:15:39.540Z,21.38
2018-04-19T09:15:52.135Z,21.34
2018-04-19T09:16:04.729Z,21.35
2018-04-19T09:16:17.400Z,21.35
2018-04-19T09:16:29.992Z,21.37
2018-04-19T09:16:42.590Z,21.37
2018-04-19T09:16:55.231Z,21.34
2018-04-19T09:17:07.879Z,21.42
2018-04-19T09:17:20.467Z,21.35
2018-04-19T09:17:33.061Z,21.43
2018-04-19T09:17:45.656Z,21.40
2018-04-19T09:17:58.267Z,21.43
2018-04-19T09:18:10.868Z,21.34
2018-04-19T09:18:23.486Z,21.43
2018-04-19T09:18:36.084Z,21.32
2018-04-19T09:18:48.674Z,21.37
2018-04-19T09:19:01.267Z,21.34
2018-04-19T09:19:13.866Z,21.35
2018-04-19T09:19:26.536Z,21.32
2018-04-19T09:19:39.076Z,21.34
2018-04-19T09:19:51.668Z,21.35
2018-04-19T09:20:04.266Z,21.29
2018-04-19T09:20:16.859Z,21.32
2018-04-19T09:20:29.488Z,21.29
2018-04-19T09:20:42.097Z,21.38
2018-04-19T09:20:54.697Z,21.34
2018-04-19T09:21:07.311Z,21.38
2018-04-19T09:21:19.908Z,21.35
2018-04-19T09:21:32.539Z,21.35
2018-04-19T09:21:45.222Z,21.34
2018-04-19T09:21:57.815Z,21.43
2018-04-19T09:22:10.451Z,21.40
2018-04-19T09:22:23.149Z,21.47
2018-04-19T09:22:35.630Z,21.43
2018-04-19T09:22:48.258Z,21.47
2018-04-19T09:23:00.860Z,21.44
2018-04-19T09:23:13.545Z,21.50
2018-04-19T09:23:26.046Z,21.53
2018-04-19T09:23:38.639Z,21.56
2018-04-19T09:23:51.238Z,21.50
2018-04-19T09:24:03.829Z,21.59
2018-04-19T09:24:16.417Z,21.54
2018-04-19T09:24:29.018Z,21.59
2018-04-19T09:24:41.609Z,21.62
2018-04-19T09:24:54.202Z,21.61
2018-04-19T09:25:06.821Z,21.64
2018-04-19T09:25:19.417Z,21.65
2018-04-19T09:25:32.013Z,21.68
2018-04-19T09:25:44.668Z,21.69
2018-04-19T09:25:57.279Z,21.62
2018-04-19T09:26:09.903Z,21.72
2018-04-19T09:26:22.779Z,21.69
2018-04-19T09:26:35.429Z,21.74
2018-04-19T09:26:48.093Z,21.69
2018-04-19T09:27:00.628Z,21.69
2018-04-19T09:27:13.252Z,21.74
2018-04-19T09:27:25.850Z,21.68
2018-04-19T09:27:38.446Z,21.65
2018-04-19T09:27:51.064Z,21.72
2018-04-19T09:28:03.665Z,21.65
2018-04-19T09:28:16.268Z,21.74
2018-04-19T09:28:28.887Z,21.72
2018-04-19T09:28:41.479Z,21.80
2018-04-19T09:28:54.121Z,21.68
2018-04-19T09:29:06.722Z,21.80
2018-04-19T09:29:19.323Z,21.79
2018-04-19T09:29:31.945Z,21.72
2018-04-19T09:29:44.533Z,21.77
2018-04-19T09:29:57.132Z,21.75
2018-04-19T09:30:09.765Z,21.75
2018-04-19T09:30:22.365Z,21.77
2018-04-19T09:30:34.941Z,21.80
2018-04-19T09:30:47.554Z,21.79
2018-04-19T09:31:00.195Z,21.79
2018-04-19T09:31:12.790Z,21.79
2018-04-19T09:31:25.389Z,21.80
2018-04-19T09:31:37.980Z,21.84
2018-04-19T09:31:50.570Z,21.86
2018-04-19T09:32:03.163Z,21.75
2018-04-19T09:32:15.757Z,21.86
2018-04-19T09:32:28.349Z,21.80
2018-04-19T09:32:40.965Z,21.90
2018-04-19T09:32:53.553Z,21.94
2018-04-19T09:33:06.151Z,21.96
2018-04-19T09:33:18.772Z,21.92
2018-04-19T09:33:31.395Z,21.94
2018-04-19T09:33:43.983Z,21.91
2018-04-19T09:33:56.559Z,21.96
2018-04-19T09:34:09.229Z,21.96
2018-04-19T09:34:21.820Z,21.99
2018-04-19T09:34:34.452Z,22.02
2018-04-19T09:34:47.032Z,22.00
2018-04-19T09:34:59.650Z,22.02
2018-04-19T09:35:12.249Z,22.07
2018-04-19T09:35:24.842Z,22.07
2018-04-19T09:35:37.438Z,22.06
2018-04-19T09:35:50.057Z,22.03
2018-04-19T09:36:02.678Z,22.02
2018-04-19T09:36:15.277Z,21.99
2018-04-19T09:36:27.877Z,22.10
2018-04-19T09:36:40.692Z,22.12
2018-04-19T09:36:53.295Z,22.14
2018-04-19T09:37:05.886Z,22.14
2018-04-19T09:37:18.479Z,22.05
2018-04-19T09:37:31.074Z,22.17
2018-04-19T09:37:43.665Z,22.15
2018-04-19T09:37:56.256Z,22.10
2018-04-19T09:38:08.853Z,22.17
2018-04-19T09:38:21.450Z,22.12
2018-04-19T09:38:34.062Z,22.18
2018-04-19T09:38:46.682Z,22.15
2018-04-19T09:38:59.300Z,22.17
2018-04-19T09:39:11.900Z,22.20
2018-04-19T09:39:24.490Z,22.20
2018-04-19T09:39:37.159Z,22.20
2018-04-19T09:39:49.699Z,22.17
2018-04-19T09:40:02.318Z,22.21
2018-04-19T09:40:14.914Z,22.12
2018-04-19T09:40:27.512Z,22.20
2018-04-19T09:40:40.130Z,22.18
2018-04-19T09:40:52.747Z,22.20
2018-04-19T09:41:05.369Z,22.21
2018-04-19T09:41:17.961Z,22.20
2018-04-19T09:41:30.577Z,22.21
2018-04-19T09:41:43.171Z,22.17
2018-04-19T09:41:55.762Z,22.20
2018-04-19T09:42:08.356Z,22.17
2018-04-19T09:42:20.954Z,22.15
2018-04-19T09:42:33.556Z,22.17
2018-04-19T09:42:46.146Z,22.20
2018-04-19T09:42:58.741Z,22.22
2018-04-19T09:43:11.403Z,22.17
2018-04-19T09:43:24.002Z,22.15
2018-04-19T09:43:36.596Z,22.21
2018-04-19T09:43:49.189Z,22.12
2018-04-19T09:44:01.792Z,22.18
2018-04-19T09:44:14.410Z,22.15
2018-04-19T09:44:27.006Z,22.10
2018-04-19T09:44:39.622Z,22.15
2018-04-19T09:44:52.243Z,22.12
2018-04-19T09:45:04.865Z,22.06
2018-04-19T09:45:17.476Z,22.17
2018-04-19T09:45:30.073Z,22.10
2018-04-19T09:45:42.677Z,22.02
2018-04-19T09:45:55.314Z,22.06
2018-04-19T09:46:07.932Z,22.09
2018-04-19T09:46:20.535Z,22.06
2018-04-19T09:46:33.152Z,21.98
2018-04-19T09:46:45.747Z,22.07
2018-04-19T09:46:58.345Z,22.06
2018-04-19T09:47:10.957Z,21.96
2018-04-19T09:47:23.552Z,22.02
2018-04-19T09:47:36.153Z,22.03
2018-04-19T09:47:48.747Z,22.03
2018-04-19T09:48:01.367Z,22.07
2018-04-19T09:48:13.959Z,21.96
2018-04-19T09:48:26.579Z,22.07
2018-04-19T09:48:39.182Z,22.06
2018-04-19T09:48:51.793Z,22.00
2018-04-19T09:49:04.385Z,22.06
2018-04-19T09:49:16.986Z,22.03
2018-04-19T09:49:29.609Z,22.10
2018-04-19T09:49:42.226Z,21.99
2018-04-19T09:49:54.841Z,22.09
2018-04-19T09:50:07.436Z,22.00
2018-04-19T09:50:20.059Z,22.03
2018-04-19T09:50:32.679Z,22.06
2018-04-19T09:50:45.272Z,22.05
2018-04-19T09:50:57.868Z,22.06
2018-04-19T09:51:10.506Z,22.12
2018-04-19T09:51:23.104Z,22.09
2018-04-19T09:51:35.722Z,22.15
2018-04-19T09:51:48.343Z,22.17
2018-04-19T09:52:00.936Z,22.09
2018-04-19T09:52:13.539Z,22.17
2018-04-19T09:52:26.153Z,22.18
2018-04-19T09:52:38.744Z,22.17
2018-04-19T09:52:51.338Z,22.24
2018-04-19T09:53:03.957Z,22.12
2018-04-19T09:53:16.569Z,22.20
2018-04-19T09:53:29.168Z,22.21
2018-04-19T09:53:41.762Z,22.15
2018-04-19T09:53:54.398Z,22.18
2018-04-19T09:54:07.034Z,22.24
2018-04-19T09:54:19.567Z,22.18
2018-04-19T09:54:32.182Z,22.27
2018-04-19T09:54:44.782Z,22.31
2018-04-19T09:54:57.394Z,22.24
2018-04-19T09:55:09.983Z,22.27
2018-04-19T09:55:22.579Z,22.25
2018-04-19T09:55:35.172Z,22.21
2018-04-19T09:55:47.765Z,22.21
2018-04-19T09:56:00.363Z,22.17
2018-04-19T09:56:12.957Z,22.24
2018-04-19T09:56:25.548Z,22.25
2018-04-19T09:56:38.169Z,22.22
2018-04-19T09:56:50.788Z,22.27
2018-04-19T09:57:03.388Z,22.25
2018-04-19T09:57:15.987Z,22.31
2018-04-19T09:57:28.602Z,22.27
2018-04-19T09:57:41.190Z,22.22
2018-04-19T09:57:53.783Z,22.33
2018-04-19T09:58:06.386Z,22.28
2018-04-19T09:58:18.998Z,22.36
2018-04-19T09:58:31.630Z,22.35
2018-04-19T09:58:44.183Z,22.36
2018-04-19T09:58:56.782Z,22.33
2018-04-19T09:59:09.403Z,22.40
2018-04-19T09:59:22.023Z,22.39
2018-04-19T09:59:34.622Z,22.33
2018-04-19T09:59:47.212Z,22.33
2018-04-19T09:59:59.805Z,22.36
2018-04-19T10:00:12.451Z,22.35
2018-04-19T10:00:25.056Z,22.35
2018-04-19T10:00:37.652Z,22.42
2018-04-19T10:00:50.223Z,22.35
2018-04-19T10:01:02.817Z,22.40
2018-04-19T10:01:15.415Z,22.42
2018-04-19T10:01:28.034Z,22.36
2018-04-19T10:01:40.653Z,22.40
2018-04-19T10:01:53.250Z,22.36
2018-04-19T10:02:05.852Z,22.47
2018-04-19T10:02:18.442Z,22.40
2018-04-19T10:02:31.035Z,22.43
2018-04-19T10:02:43.632Z,22.36
2018-04-19T10:02:56.296Z,22.39
2018-04-19T10:03:08.894Z,22.40
2018-04-19T10:03:21.493Z,22.51
2018-04-19T10:03:34.085Z,22.46
2018-04-19T10:03:46.682Z,22.43
2018-04-19T10:03:59.281Z,22.46
2018-04-19T10:04:11.909Z,22.42
2018-04-19T10:04:24.476Z,22.40
2018-04-19T10:04:37.067Z,22.47
2018-04-19T10:04:49.669Z,22.49
2018-04-19T10:05:02.283Z,22.49
2018-04-19T10:05:14.880Z,22.42
2018-04-19T10:05:27.540Z,22.49
2018-04-19T10:05:40.138Z,22.47
2018-04-19T10:05:52.756Z,22.47
2018-04-19T10:06:05.354Z,22.46
2018-04-19T10:06:17.971Z,22.45
2018-04-19T10:06:30.567Z,22.46
2018-04-19T10:06:43.190Z,22.43
2018-04-19T10:06:55.780Z,22.46
2018-04-19T10:07:08.376Z,22.49
2018-04-19T10:07:20.997Z,22.52
2018-04-19T10:07:33.610Z,22.47
2018-04-19T10:07:46.204Z,22.47
2018-04-19T10:07:58.804Z,22.49
2018-04-19T10:08:11.424Z,22.51
2018-04-19T10:08:24.040Z,22.49
2018-04-19T10:08:36.638Z,22.46
2018-04-19T10:08:49.232Z,22.45
2018-04-19T10:09:01.864Z,22.52
2018-04-19T10:09:14.522Z,22.54
2018-04-19T10:09:27.183Z,22.43
2018-04-19T10:09:39.841Z,22.40
2018-04-19T10:09:52.425Z,22.47
2018-04-19T10:10:05.021Z,22.46
2018-04-19T10:10:17.621Z,22.42
2018-04-19T10:10:30.265Z,22.47
2018-04-19T10:10:42.849Z,22.42
2018-04-19T10:10:55.442Z,22.43
2018-04-19T10:11:08.035Z,22.52
2018-04-19T10:11:20.625Z,22.51
2018-04-19T10:11:33.221Z,22.51
2018-04-19T10:11:45.818Z,22.42
2018-04-19T10:11:58.487Z,22.39
2018-04-19T10:12:11.100Z,22.45
2018-04-19T10:12:23.699Z,22.45
2018-04-19T10:12:36.319Z,22.45
2018-04-19T10:12:48.914Z,22.36
2018-04-19T10:13:01.573Z,22.40
2018-04-19T10:13:14.208Z,22.47
2018-04-19T10:13:26.896Z,22.36
2018-04-19T10:13:39.552Z,22.37
2018-04-19T10:13:52.187Z,22.40
2018-04-19T10:14:04.788Z,22.36
2018-04-19T10:14:17.407Z,22.40
2018-04-19T10:14:30.028Z,22.36
2018-04-19T10:14:42.658Z,22.35
2018-04-19T10:14:55.269Z,22.35
2018-04-19T10:15:07.862Z,22.43
2018-04-19T10:15:20.455Z,22.35
2018-04-19T10:15:33.054Z,22.40
2018-04-19T10:15:45.647Z,22.35
2018-04-19T10:15:58.251Z,22.39
2018-04-19T10:16:10.910Z,22.37
2018-04-19T10:16:23.468Z,22.28
2018-04-19T10:16:36.065Z,22.33
2018-04-19T10:16:48.680Z,22.33
2018-04-19T10:17:01.302Z,22.37
2018-04-19T10:17:13.916Z,22.36
2018-04-19T10:17:26.509Z,22.35
2018-04-19T10:17:39.107Z,22.33
2018-04-19T10:17:51.703Z,22.39
2018-04-19T10:18:04.299Z,22.37
2018-04-19T10:18:16.892Z,22.36
2018-04-19T10:18:29.486Z,22.40
2018-04-19T10:18:42.104Z,22.39
2018-04-19T10:18:54.728Z,22.39
2018-04-19T10:19:07.323Z,22.47
2018-04-19T10:19:19.939Z,22.49
2018-04-19T10:19:32.535Z,22.47
2018-04-19T10:19:45.128Z,22.45
2018-04-19T10:19:57.721Z,22.45
2018-04-19T10:20:10.319Z,22.51
2018-04-19T10:20:22.936Z,22.43
2018-04-19T10:20:35.535Z,22.42
2018-04-19T10:20:48.129Z,22.52
2018-04-19T10:21:00.743Z,22.52
2018-04-19T10:21:13.353Z,22.52
2018-04-19T10:21:26.038Z,22.46
2018-04-19T10:21:38.530Z,22.46
2018-04-19T10:21:51.148Z,22.47
2018-04-19T10:22:03.753Z,22.51
2018-04-19T10:22:16.355Z,22.47
2018-04-19T10:22:28.948Z,22.52
2018-04-19T10:22:41.549Z,22.43
2018-04-19T10:22:54.161Z,22.47
2018-04-19T10:23:06.758Z,22.52
2018-04-19T10:23:19.377Z,22.46
2018-04-19T10:23:31.997Z,22.46
2018-04-19T10:23:44.570Z,22.60
2018-04-19T10:23:57.190Z,22.60
2018-04-19T10:24:09.779Z,22.54
2018-04-19T10:24:22.378Z,22.57
2018-04-19T10:24:34.998Z,22.57
2018-04-19T10:24:47.588Z,22.58
2018-04-19T10:25:00.183Z,22.58
2018-04-19T10:25:12.777Z,22.62
2018-04-19T10:25:25.370Z,22.57
2018-04-19T10:25:37.991Z,22.72
2018-04-19T10:25:50.587Z,22.64
2018-04-19T10:26:03.185Z,22.65
2018-04-19T10:26:15.774Z,22.68
2018-04-19T10:26:28.372Z,22.64
2018-04-19T10:26:40.969Z,22.77
2018-04-19T10:26:53.583Z,22.68
2018-04-19T10:27:06.172Z,22.72
2018-04-19T10:27:18.824Z,22.70
2018-04-19T10:27:31.387Z,22.70
2018-04-19T10:27:43.981Z,22.72
2018-04-19T10:27:56.599Z,22.77
2018-04-19T10:28:09.221Z,22.76
2018-04-19T10:28:21.814Z,22.75
2018-04-19T10:28:34.407Z,22.76